Flight Track Log - Related Links

Times and Time Zones

All times are in EDT time to prevent confusion due to time zone crossing. See the GJS3710 flight status page for this flight to view local times or setup timezone preferences in your user account.

Time Position Orientation Groundspeed Altitude Reporting Facility
EDT Latitude Longitude Course Direction KTS MPH feet Rate Location/Type
Tue 08:03:43 PM 42.0333 -87.8500 86° East 190 219 3,200  Level Chicago TRACON
Tue 08:04:14 PM 42.0586 -87.8278 33° Northeast 201 231 4,200 1,161 Climbing Chicago Center
Tue 08:05:00 PM 42.1221 -87.4728 63° Northeast  Level FlightAware Approximate
Tue 08:05:16 PM 42.0764 -87.7394 75° East 251 289 5,000  Level Chicago Center
Tue 08:06:00 PM 42.1747 -87.3262 66° East  Level FlightAware Approximate
Tue 08:06:18 PM 42.0761 -87.6397 90° East 262 302 5,000  Level Chicago Center
Tue 08:07:00 PM 42.2242 -87.1775 66° East  Level FlightAware Approximate
Tue 08:07:20 PM 42.0767 -87.5414 90° East 264 304 6,900  Level Chicago Center
Tue 08:08:00 PM 42.2667 -87.0266 90° East  Level FlightAware Approximate
Tue 08:08:22 PM 42.1161 -87.4469 61° Northeast 289 333 9,600  Level Chicago Center
Tue 08:09:00 PM 42.2733 -86.8636 86° East  Level FlightAware Approximate
Tue 08:09:24 PM 42.1653 -87.3319 60° Northeast 298 343 12,800  Level Chicago Center
Tue 08:10:26 PM 42.2072 -87.2317 61° Northeast 307 353 14,900 1,488 Climbing Chicago Center
Tue 08:11:29 PM 42.2558 -87.1153 61° Northeast 353 406 15,900 1,200 Climbing Chicago Center
Tue 08:12:31 PM 42.2825 -86.9836 75° East 366 421 17,400 1,500 Climbing Chicago Center
Tue 08:13:33 PM 42.2881 -86.8428 87° East 376 433 19,000 1,790 Climbing Chicago Center
Tue 08:14:35 PM 42.2939 -86.6725 87° East 387 445 21,100 1,790 Climbing Chicago Center
Tue 08:15:37 PM 42.2997 -86.5214 87° East 400 460 22,700 1,548 Climbing Chicago Center
Tue 08:16:39 PM 42.3050 -86.3692 87° East 408 470 24,300 1,355 Climbing Chicago Center
Tue 08:17:41 PM 42.3106 -86.2153 87° East 413 475 25,500 1,161 Climbing Chicago Center
Tue 08:18:43 PM 42.3144 -86.0567 88° East 423 487 26,700 1,258 Climbing Chicago Center
Tue 08:19:45 PM 42.3122 -85.8608 91° East 436 502 28,100 1,210 Climbing Chicago Center
Tue 08:20:47 PM 42.3106 -85.6958 91° East 440 506 29,200 912 Climbing Chicago Center
Tue 08:21:50 PM 42.3075 -85.5281 91° East 448 516 30,000 816 Climbing Chicago Center
Tue 08:22:52 PM 42.3056 -85.3528 91° East 457 526 30,900 919 Climbing Chicago Center
Tue 08:23:54 PM 42.3033 -85.1831 91° East 461 531 31,900 968 Climbing Chicago Center
Tue 08:24:56 PM 42.2994 -84.9728 91° East 468 539 32,900 823 Climbing Chicago Center
Tue 08:25:58 PM 42.2942 -84.7944 92° East 476 548 33,600 677 Climbing Chicago Center
Tue 08:27:00 PM 42.2986 -84.6119 88° East 488 562 34,300 677 Climbing Chicago Center
Tue 08:28:02 PM 42.3150 -84.4289 83° East 494 568 35,000 677 Climbing Chicago Center
Tue 08:29:04 PM 42.3300 -84.2433 84° East 498 573 35,700 726 Climbing Chicago Center
Tue 08:30:06 PM 42.3503 -84.0178 83° East 507 583 36,500 629 Climbing Chicago Center
Tue 08:31:08 PM 42.3656 -83.8272 84° East 511 588 37,000 482 Climbing Chicago Center
Tue 08:32:23 PM 42.3814 -83.5853 85° East 512 589 37,600 489 Climbing Cleveland Center
Tue 08:33:23 PM 42.3942 -83.4117 84° East 518 596 38,100 600 Climbing Cleveland Center
Tue 08:34:23 PM 42.4111 -83.2211 83° East 513 590 38,800 450 Climbing Cleveland Center
Tue 08:35:23 PM 42.4281 -83.0250 83° East 520 598 39,000 100 Climbing Cleveland Center
Tue 08:36:23 PM 42.4400 -82.8397 85° East 509 586 39,000  Level Cleveland Center
Tue 08:37:23 PM 42.4542 -82.6544 84° East 499 574 39,000  Level Cleveland Center
Tue 08:38:23 PM 42.4675 -82.4719 84° East 494 568 39,000  Level Cleveland Center
Tue 08:39:23 PM 42.4808 -82.2892 84° East 488 562 39,000  Level Cleveland Center
Tue 08:40:23 PM 42.4919 -82.1008 85° East 488 562 39,000  Level Cleveland Center
Tue 08:41:23 PM 42.5025 -81.9153 86° East 494 568 39,000  Level Cleveland Center
Tue 08:42:23 PM 42.5214 -81.7072 83° East 494 568 39,000  Level Cleveland Center
Tue 08:43:23 PM 42.5314 -81.5158 86° East 500 575 39,000  Level Cleveland Center
Tue 08:44:23 PM 42.5433 -81.3300 85° East 500 575 39,000  Level Cleveland Center
Tue 08:45:23 PM 42.5567 -81.1414 84° East 500 575 39,000  Level Cleveland Center
Tue 08:46:23 PM 42.5658 -80.9694 86° East 500 575 39,000  Level Cleveland Center
Tue 08:47:23 PM 42.5747 -80.7778 86° East 500 575 39,000  Level Cleveland Center
Tue 08:48:23 PM 42.5872 -80.5861 85° East 505 581 39,000  Level Cleveland Center
Tue 08:49:23 PM 42.5956 -80.3886 87° East 512 589 39,000  Level Cleveland Center
Tue 08:50:23 PM 42.6075 -80.1967 85° East 518 596 39,000  Level Cleveland Center
Tue 08:51:23 PM 42.6192 -79.9822 86° East 518 596 39,000  Level Cleveland Center
Tue 08:52:23 PM 42.6264 -79.7875 87° East 518 596 39,000  Level Cleveland Center
Tue 08:53:23 PM 42.6372 -79.5925 86° East 518 596 39,000 -200 Level Cleveland Center
Tue 08:54:23 PM 42.6458 -79.3947 87° East 518 596 38,600 -950 Descending Cleveland Center
Tue 08:55:23 PM 42.6542 -79.2000 87° East 518 596 37,100 -1,500 Descending Cleveland Center
Tue 08:56:23 PM 42.6600 -79.0050 88° East 518 596 35,600 -1,450 Descending Cleveland Center
Tue 08:57:23 PM 42.6675 -78.8014 87° East 523 602 34,200 -1,200 Descending Cleveland Center
Tue 08:58:23 PM 42.6786 -78.5978 86° East 529 609 33,200 -700 Descending Cleveland Center
Tue 08:59:23 PM 42.6833 -78.3969 88° East 534 615 32,800 -700 Descending Cleveland Center
Tue 09:00:23 PM 42.6897 -78.1936 87° East 534 615 31,800 -1,000 Descending Cleveland Center
Tue 09:01:23 PM 42.6958 -77.9869 88° East 539 620 30,800 -950 Descending Cleveland Center
Tue 09:02:23 PM 42.7019 -77.8086 87° East 534 615 29,900 -614 Descending Cleveland Center
Tue 09:04:19 PM 42.7131 -77.4061 88° East 503 579 29,000 -307 Descending Boston Center
Tue 09:05:19 PM 42.7172 -77.2111 88° East 503 579 29,000  Level Boston Center
Tue 09:06:19 PM 42.7211 -77.0164 88° East 503 579 29,000  Level Boston Center
Tue 09:07:19 PM 42.7267 -76.8189 88° East 509 586 29,000  Level Boston Center
Tue 09:08:19 PM 42.7319 -76.6269 88° East 514 592 29,000 -450 Level Boston Center
Tue 09:09:19 PM 42.7325 -76.4319 90° East 514 592 28,100 -1,300 Descending Boston Center
Tue 09:10:19 PM 42.7358 -76.2764 88° East 514 592 26,400 -1,950 Descending Boston Center
Tue 09:11:19 PM 42.7406 -76.0731 88° East 508 585 24,200 -2,100 Descending Boston Center
Tue 09:12:19 PM 42.7419 -75.8894 89° East 496 571 22,200 -2,000 Descending Boston Center
Tue 09:13:19 PM 42.7431 -75.7169 89° East 471 542 20,200 -2,000 Descending Boston Center
Tue 09:14:19 PM 42.7456 -75.5503 89° East 450 518 18,200 -2,000 Descending Boston Center
Tue 09:15:19 PM 42.7475 -75.3947 89° East 431 496 16,200 -2,000 Descending Boston Center
Tue 09:16:19 PM 42.7494 -75.2422 89° East 418 481 14,200 -2,150 Descending Boston Center
Tue 09:17:19 PM 42.7514 -75.0756 89° East 397 457 11,900 -1,650 Descending Boston Center
Tue 09:18:19 PM 42.7525 -74.9342 89° East 384 442 10,900 -450 Descending Boston Center
Tue 09:19:19 PM 42.7511 -74.8039 91° East 379 436 11,000 50 Climbing Boston Center
Tue 09:20:19 PM 42.7519 -74.6483 90° East 379 436 11,000  Level Boston Center
Tue 09:21:19 PM 42.7522 -74.5211 90° East 379 436 11,000 -500 Level Boston Center
Tue 09:22:19 PM 42.7422 -74.3822 96° East 351 404 10,000 -1,300 Descending Boston Center
Tue 09:23:19 PM 42.7336 -74.2858 97° East 298 343 8,400 -1,689 Descending Boston Center
Tue 09:24:34 PM 42.7169 -74.1497 99° East 273 314 6,200 -1,544 Descending Boston Center
Tue 09:25:35 PM 42.6994 -74.0589 105° East 244 281 4,900 -1,190 Descending Boston Center
Tue 09:26:35 PM 42.6778 -73.9736 109° East 217 250 3,800 -1,041 Descending Boston Center
Tue 09:27:36 PM 42.6600 -73.8997 108° East 206 237 2,800 -836 Descending Boston Center
Tue 09:28:37 PM 42.6503 -73.8344 101° East 154 177 2,100 -689 Descending Boston Center

Login

Don't have an account? Register now (free) for customized features, flight alerts, and more!